Main page
METAR-TAF:

METAR-TAF

Airports :

Princess Juliana International Airport

Sint Maarten, Netherlands Antilles

latitude: 18-03N, longitude: 063-07W, elevation: 4 m

Current weather observation

The report was made 22 minutes ago, at 11:00 UTC
Wind 6 kt from the North, varying between North/Northwest and Northeast
Temperature 25°C
Humidity 69%
Pressure 1013 hPa
Visibility 10 km or more
Few clouds at a height of 1800 ft

METAR: TNCM 061100Z 01006KT 340V040 9999 FEW018 25/19 Q1013 NOSIG

Time: 07:22 (11:22 UTC)

Forecast

The report was made 12 hours and 22 minutes ago, at 23:00 UTC
Forecast valid from 06 at 00 UTC to 06 at 24 UTC
Wind 8 kt from the North/Northwest
Visibility 10 km or more
Scattered clouds at a height of 1800 ft

TAF: TNCM 052300Z 0600/0624 34008KT 9999 SCT018

Weather observations and forecasts of more than 4000 airports (METAR and TAF reports).

The available stations are represented by yellow and red dots on the map.

Hover mouse over dot to see the name of the station.

Then click to see weather observations and forecasts.

To change the map : click on the green buttons with a black cross to zoom in, on the green button with a dash to zoom out, or on the green arrows for adjacent maps.


METAR-TAF: